createdAt,value
2022-11-07T00:01:23.347Z,96987.81
2022-11-07T00:03:54.111Z,96987.09
2022-11-07T00:06:21.234Z,96978.25
2022-11-07T00:08:49.368Z,96985.16
2022-11-07T00:11:16.104Z,96989.34
2022-11-07T00:13:42.852Z,96985.88
2022-11-07T00:16:10.764Z,96998.19
2022-11-07T00:18:37.375Z,97000.34
2022-11-07T00:21:09.870Z,96990.53
2022-11-07T00:23:39.975Z,96991.97
2022-11-07T00:26:11.957Z,97000.22
2022-11-07T00:28:40.654Z,96987.19
2022-11-07T00:31:08.510Z,96990.66
2022-11-07T00:33:35.834Z,96989.22
2022-11-07T00:36:02.564Z,96994.72
2022-11-07T00:38:29.310Z,97001.63
2022-11-07T00:41:00.349Z,97006.41
2022-11-07T00:43:27.618Z,96994.00
2022-11-07T00:45:54.273Z,96997.47
2022-11-07T00:48:21.266Z,96999.50
2022-11-07T00:50:48.088Z,97002.94
2022-11-07T00:53:15.148Z,97000.22
2022-11-07T00:55:42.098Z,96996.75
2022-11-07T00:58:13.582Z,97004.38
2022-11-07T01:00:41.064Z,97002.34
2022-11-07T01:03:26.289Z,97008.56
2022-11-07T01:06:11.827Z,97006.53
2022-11-07T01:08:38.523Z,97007.25
2022-11-07T01:11:06.771Z,97018.25
2022-11-07T01:13:34.178Z,97018.81
2022-11-07T01:16:00.898Z,97016.22
2022-11-07T01:18:27.658Z,97006.66
2022-11-07T01:20:54.349Z,97006.66
2022-11-07T01:23:22.851Z,97019.06
2022-11-07T01:25:49.557Z,97012.25
2022-11-07T01:28:16.438Z,97010.09
2022-11-07T01:30:44.432Z,97024.56
2022-11-07T01:33:11.589Z,97030.19
2022-11-07T01:35:38.602Z,97018.44
2022-11-07T01:38:05.430Z,97023.94
2022-11-07T01:40:33.850Z,97017.16
2022-11-07T01:43:00.656Z,97022.03
2022-11-07T01:45:30.917Z,97021.34
2022-11-07T01:47:59.969Z,97020.00
2022-11-07T01:50:27.005Z,97024.19
2022-11-07T01:52:55.161Z,97014.63
2022-11-07T01:55:33.749Z,97023.59
2022-11-07T01:58:02.948Z,97011.88
2022-11-07T02:00:30.673Z,97022.28
2022-11-07T02:03:14.088Z,97036.00
2022-11-07T02:05:55.298Z,97016.19
2022-11-07T02:08:23.008Z,97031.38
2022-11-07T02:10:49.899Z,97027.31
2022-11-07T02:13:32.945Z,97030.06
2022-11-07T02:16:05.189Z,97021.81
2022-11-07T02:18:34.382Z,97027.44
2022-11-07T02:21:06.050Z,97015.75
2022-11-07T02:23:47.933Z,97018.47
2022-11-07T02:26:14.782Z,97015.84
2022-11-07T02:28:42.572Z,97030.28
2022-11-07T02:31:09.339Z,97015.25
2022-11-07T02:33:35.959Z,97030.41
2022-11-07T02:36:02.723Z,97027.69
2022-11-07T02:38:32.608Z,97023.38
2022-11-07T02:41:08.200Z,97017.97
2022-11-07T02:43:35.566Z,97021.44
2022-11-07T02:46:05.198Z,97015.25
2022-11-07T02:48:33.699Z,97011.91
2022-11-07T02:51:00.404Z,97023.00
2022-11-07T02:53:27.082Z,97024.31
2022-11-07T02:55:53.719Z,97023.00
2022-11-07T02:58:20.465Z,97021.69
2022-11-07T03:00:47.613Z,97024.44
2022-11-07T03:03:14.763Z,97012.84
2022-11-07T03:05:41.742Z,97007.34
2022-11-07T03:08:08.615Z,97019.78
2022-11-07T03:10:35.483Z,97020.50
2022-11-07T03:13:02.261Z,97015.00
2022-11-07T03:15:28.914Z,97009.50
2022-11-07T03:17:55.626Z,97013.56
2022-11-07T03:20:22.310Z,97012.25
2022-11-07T03:22:49.036Z,97006.75
2022-11-07T03:25:15.674Z,97018.47
2022-11-07T03:27:47.625Z,97014.41
2022-11-07T03:30:14.702Z,97017.13
2022-11-07T03:32:41.349Z,97009.63
2022-11-07T03:35:08.599Z,97009.50
2022-11-07T03:37:35.248Z,97019.78
2022-11-07T03:40:02.079Z,97021.91
2022-11-07T03:42:28.773Z,97019.19
2022-11-07T03:44:55.501Z,97032.91
2022-11-07T03:47:22.210Z,97028.72
2022-11-07T03:49:48.940Z,97024.66
2022-11-07T03:52:15.616Z,97027.41
2022-11-07T03:54:42.371Z,97021.91
2022-11-07T03:57:09.093Z,97030.88
2022-11-07T03:59:35.769Z,97021.22
2022-11-07T04:02:02.516Z,97030.16
2022-11-07T04:04:29.326Z,97039.00
2022-11-07T04:06:55.945Z,97041.03
2022-11-07T04:09:22.680Z,97053.47
2022-11-07T04:12:07.877Z,97039.72
2022-11-07T04:14:53.430Z,97043.03
2022-11-07T04:17:20.414Z,97048.53
2022-11-07T04:19:48.422Z,97044.38
2022-11-07T04:22:15.385Z,97046.53
2022-11-07T04:24:46.267Z,97050.00
2022-11-07T04:27:32.634Z,97051.41
2022-11-07T04:29:59.729Z,97048.69
2022-11-07T04:32:26.381Z,97052.84
2022-11-07T04:34:53.091Z,97057.03
2022-11-07T04:37:19.794Z,97054.88
2022-11-07T04:39:46.546Z,97047.34
2022-11-07T04:42:13.192Z,97041.25
2022-11-07T04:44:39.912Z,97046.75
2022-11-07T04:47:06.518Z,97051.53
2022-11-07T04:49:33.280Z,97055.69
2022-11-07T04:51:59.983Z,97054.41
2022-11-07T04:54:26.719Z,97057.16
2022-11-07T04:56:53.398Z,97047.59
2022-11-07T04:59:20.101Z,97052.38
2022-11-07T05:01:46.812Z,97062.03
2022-11-07T05:04:13.970Z,97060.72
2022-11-07T05:06:41.013Z,97061.44
2022-11-07T05:09:09.326Z,97066.94
2022-11-07T05:11:36.018Z,97068.34
2022-11-07T05:14:02.719Z,97066.94
2022-11-07T05:16:30.462Z,97066.81
2022-11-07T05:18:57.090Z,97059.41
2022-11-07T05:21:23.840Z,97058.69
2022-11-07T05:23:50.490Z,97071.09
2022-11-07T05:26:18.120Z,97069.09
2022-11-07T05:28:44.809Z,97069.81
2022-11-07T05:31:15.240Z,97071.09
2022-11-07T05:33:42.277Z,97064.31
2022-11-07T05:36:13.897Z,97079.34
2022-11-07T05:38:46.158Z,97066.94
2022-11-07T05:41:14.441Z,97075.88
2022-11-07T05:43:41.300Z,97073.75
2022-11-07T05:46:08.400Z,97074.44
2022-11-07T05:48:35.713Z,97083.41
2022-11-07T05:51:02.529Z,97086.88
2022-11-07T05:53:29.608Z,97081.28
2022-11-07T05:55:57.010Z,97078.53
2022-11-07T05:58:23.929Z,97079.13
2022-11-07T06:00:50.696Z,97082.59
2022-11-07T06:03:20.811Z,97086.75
2022-11-07T06:05:47.858Z,97085.69
2022-11-07T06:08:14.878Z,97094.75
2022-11-07T06:10:42.876Z,97092.38
2022-11-07T06:13:15.311Z,97094.13
2022-11-07T06:15:43.671Z,97092.94
2022-11-07T06:18:16.930Z,97090.41
2022-11-07T06:20:43.955Z,97091.59
2022-11-07T06:23:10.839Z,97086.47
2022-11-07T06:25:37.802Z,97081.44
2022-11-07T06:28:06.851Z,97083.09
2022-11-07T06:30:34.269Z,97080.69
2022-11-07T06:33:06.534Z,97085.31
2022-11-07T06:35:34.256Z,97084.03
2022-11-07T06:38:04.977Z,97085.31
2022-11-07T06:40:31.842Z,97089.13
2022-11-07T06:43:18.008Z,97087.84
2022-11-07T06:45:46.573Z,97090.06
2022-11-07T06:48:13.594Z,97099.59
2022-11-07T06:50:40.530Z,97092.56
2022-11-07T06:53:09.419Z,97092.13
2022-11-07T06:55:37.321Z,97098.13
2022-11-07T06:58:04.529Z,97093.59
2022-11-07T07:00:34.114Z,97097.16
2022-11-07T07:03:01.096Z,97097.44
2022-11-07T07:05:28.338Z,97103.41
2022-11-07T07:07:55.979Z,97100.78
2022-11-07T07:10:24.845Z,97103.66
2022-11-07T07:12:53.033Z,97101.63
2022-11-07T07:15:19.736Z,97102.34
2022-11-07T07:17:46.534Z,97107.81
2022-11-07T07:20:13.355Z,97108.19
2022-11-07T07:22:40.589Z,97103.09
2022-11-07T07:25:08.098Z,97112.03
2022-11-07T07:27:34.865Z,97110.84
2022-11-07T07:30:01.502Z,97114.53
2022-11-07T07:32:28.249Z,97109.31
2022-11-07T07:34:54.935Z,97106.81
2022-11-07T07:37:21.758Z,97109.78
2022-11-07T07:39:48.480Z,97115.66
2022-11-07T07:42:15.290Z,97122.06
2022-11-07T07:44:51.567Z,97122.94
2022-11-07T07:47:19.082Z,97123.19
2022-11-07T07:49:45.701Z,97137.47
2022-11-07T07:52:12.454Z,97129.84
2022-11-07T07:54:39.374Z,97132.22
2022-11-07T07:57:06.073Z,97133.69
2022-11-07T07:59:32.710Z,97131.78
2022-11-07T08:01:59.559Z,97137.03
2022-11-07T08:04:27.167Z,97141.81
2022-11-07T08:06:55.069Z,97136.19
2022-11-07T08:09:21.906Z,97137.88
2022-11-07T08:11:48.778Z,97143.97
2022-11-07T08:14:15.614Z,97137.78
2022-11-07T08:16:42.890Z,97152.06
2022-11-07T08:19:10.181Z,97145.13
2022-11-07T08:21:37.208Z,97144.28
2022-11-07T08:24:04.353Z,97140.84
2022-11-07T08:26:31.536Z,97148.72
2022-11-07T08:28:58.610Z,97152.66
2022-11-07T08:31:25.488Z,97144.25
2022-11-07T08:33:52.299Z,97146.38
2022-11-07T08:36:19.131Z,97155.41
2022-11-07T08:38:55.410Z,97150.28
2022-11-07T08:41:22.787Z,97159.41
2022-11-07T08:43:49.843Z,97150.69
2022-11-07T08:46:16.739Z,97155.53
2022-11-07T08:48:43.726Z,97150.59
2022-11-07T08:51:10.484Z,97139.84
2022-11-07T08:53:37.222Z,97150.41
2022-11-07T08:56:05.852Z,97142.19
2022-11-07T08:58:32.771Z,97143.78
2022-11-07T09:01:00.018Z,97132.38
2022-11-07T09:06:13.591Z,97151.78
2022-11-07T09:08:41.171Z,97142.31
2022-11-07T09:11:08.402Z,97154.06
2022-11-07T09:13:35.349Z,97158.25
2022-11-07T09:16:03.589Z,97164.56
2022-11-07T09:18:30.870Z,97151.41
2022-11-07T09:20:58.487Z,97166.03
2022-11-07T09:23:25.642Z,97159.59
2022-11-07T09:25:52.327Z,97161.72
2022-11-07T09:28:19.084Z,97156.91
2022-11-07T09:30:45.752Z,97164.16
2022-11-07T09:33:15.862Z,97153.03
2022-11-07T09:35:43.713Z,97169.63
2022-11-07T09:38:10.397Z,97159.59
2022-11-07T09:40:55.918Z,97159.50
2022-11-07T09:43:51.470Z,97174.44
2022-11-07T09:46:21.302Z,97175.94
2022-11-07T09:48:51.712Z,97172.19
2022-11-07T09:51:35.855Z,97170.16
2022-11-07T09:54:21.842Z,97188.72
2022-11-07T09:56:48.718Z,97181.47
2022-11-07T09:59:26.321Z,97181.69
2022-11-07T10:01:53.244Z,97190.69
2022-11-07T10:04:26.272Z,97185.88
2022-11-07T10:07:03.446Z,97172.69
2022-11-07T10:09:49.166Z,97184.31
2022-11-07T10:12:41.757Z,97187.59
2022-11-07T10:15:54.017Z,97169.22
2022-11-07T10:18:41.145Z,97181.19
2022-11-07T10:21:37.138Z,97180.88
2022-11-07T10:24:37.320Z,97178.34
2022-11-07T10:27:09.415Z,97175.38
2022-11-07T10:29:44.893Z,97172.31
2022-11-07T10:32:20.327Z,97177.41
2022-11-07T10:34:54.170Z,97176.19
2022-11-07T10:37:22.002Z,97175.78
2022-11-07T10:39:48.756Z,97176.00
2022-11-07T10:42:20.977Z,97170.69
2022-11-07T10:44:49.978Z,97168.25
2022-11-07T10:47:27.862Z,97173.84
2022-11-07T10:49:55.300Z,97175.91
2022-11-07T10:52:22.291Z,97172.97
2022-11-07T10:54:49.165Z,97165.50
2022-11-07T10:57:17.666Z,97183.88
2022-11-07T10:59:53.660Z,97169.69
2022-11-07T11:02:31.059Z,97183.91
2022-11-07T11:05:02.530Z,97177.16
2022-11-07T11:07:39.669Z,97174.50
2022-11-07T11:10:19.001Z,97170.47
2022-11-07T11:12:47.251Z,97169.56
2022-11-07T11:15:19.138Z,97179.75
2022-11-07T11:17:46.546Z,97177.38
2022-11-07T11:20:43.542Z,97170.94
2022-11-07T11:23:37.017Z,97167.75
2022-11-07T11:26:09.152Z,97169.91
2022-11-07T11:28:46.168Z,97158.56
2022-11-07T11:31:22.514Z,97165.88
2022-11-07T11:33:53.716Z,97160.28
2022-11-07T11:36:24.344Z,97144.06
2022-11-07T11:38:57.281Z,97147.06
2022-11-07T11:41:48.223Z,97147.25
2022-11-07T11:44:35.939Z,97153.84
2022-11-07T11:47:30.313Z,97154.69
2022-11-07T11:50:03.536Z,97155.91
2022-11-07T11:52:32.036Z,97151.28
2022-11-07T11:55:00.458Z,97154.47
2022-11-07T11:57:35.352Z,97136.56
2022-11-07T12:00:15.533Z,97147.13
2022-11-07T12:03:05.779Z,97140.19
2022-11-07T12:06:03.714Z,97143.22
2022-11-07T12:08:48.917Z,97139.69
2022-11-07T12:11:34.446Z,97138.66
2022-11-07T12:14:07.627Z,97145.59
2022-11-07T12:16:38.532Z,97142.75
2022-11-07T12:19:24.026Z,97137.25
2022-11-07T12:22:28.064Z,97143.72
2022-11-07T12:24:56.672Z,97143.16
2022-11-07T12:27:32.267Z,97141.91
2022-11-07T12:30:14.368Z,97140.38
2022-11-07T12:32:53.111Z,97140.22
2022-11-07T12:35:41.658Z,97138.63
2022-11-07T12:38:49.830Z,97147.88
2022-11-07T12:41:29.158Z,97141.94
2022-11-07T12:43:55.959Z,97140.22
2022-11-07T12:46:46.006Z,97133.09
2022-11-07T12:49:49.902Z,97132.75
2022-11-07T12:52:53.497Z,97134.78
2022-11-07T12:55:26.021Z,97128.25
2022-11-07T12:57:53.780Z,97121.13
2022-11-07T13:00:29.590Z,97124.50
2022-11-07T13:03:28.086Z,97114.72
2022-11-07T13:06:15.229Z,97118.97
2022-11-07T13:09:04.989Z,97122.25
2022-11-07T13:11:50.137Z,97127.69
2022-11-07T13:14:30.787Z,97123.56
2022-11-07T13:17:17.429Z,97129.53
2022-11-07T13:20:05.626Z,97127.59
2022-11-07T13:22:40.525Z,97125.03
2022-11-07T13:25:17.232Z,97116.75
2022-11-07T13:28:25.810Z,97109.34
2022-11-07T13:31:02.403Z,97110.78
2022-11-07T13:33:33.780Z,97111.41
2022-11-07T13:36:15.558Z,97111.63
2022-11-07T13:38:50.251Z,97110.47
2022-11-07T13:41:17.160Z,97109.97
2022-11-07T13:43:55.595Z,97119.56
2022-11-07T13:46:38.426Z,97112.38
2022-11-07T13:49:18.594Z,97107.84
2022-11-07T13:51:50.628Z,97113.09
2022-11-07T13:54:34.773Z,97108.25
2022-11-07T13:57:04.558Z,97110.91
2022-11-07T13:59:54.222Z,97099.16
2022-11-07T14:02:26.715Z,97102.50
2022-11-07T14:05:16.303Z,97104.72
2022-11-07T14:07:51.298Z,97098.41
2022-11-07T14:10:21.198Z,97092.97
2022-11-07T14:12:48.308Z,97091.47
2022-11-07T14:15:16.727Z,97096.25
2022-11-07T14:17:43.834Z,97104.69
2022-11-07T14:20:16.883Z,97100.19
2022-11-07T14:22:57.995Z,97101.34
2022-11-07T14:25:27.094Z,97098.97
2022-11-07T14:27:53.899Z,97103.34
2022-11-07T14:30:21.902Z,97100.94
2022-11-07T14:32:54.689Z,97096.34
2022-11-07T14:35:25.733Z,97091.88
2022-11-07T14:37:52.863Z,97094.63
2022-11-07T14:40:19.873Z,97098.56
2022-11-07T14:42:46.987Z,97096.78
2022-11-07T14:45:23.817Z,97096.91
2022-11-07T14:48:03.285Z,97099.31
2022-11-07T14:50:30.039Z,97092.66
2022-11-07T14:53:04.644Z,97095.81
2022-11-07T14:55:38.492Z,97096.38
2022-11-07T14:58:06.209Z,97093.22
2022-11-07T15:00:33.878Z,97097.16
2022-11-07T15:03:01.209Z,97091.25
2022-11-07T15:05:44.162Z,97085.56
2022-11-07T15:08:33.845Z,97090.38
2022-11-07T15:11:00.552Z,97094.41
2022-11-07T15:13:27.533Z,97085.88
2022-11-07T15:16:13.093Z,97078.03
2022-11-07T15:18:42.703Z,97080.53
2022-11-07T15:21:28.830Z,97078.75
2022-11-07T15:23:55.810Z,97077.63
2022-11-07T15:26:25.385Z,97082.97
2022-11-07T15:28:53.506Z,97079.81
2022-11-07T15:31:21.418Z,97075.34
2022-11-07T15:33:48.244Z,97072.31
2022-11-07T15:36:15.798Z,97072.41
2022-11-07T15:38:42.962Z,97086.22
2022-11-07T15:41:11.434Z,97085.88
2022-11-07T15:43:38.527Z,97093.53
2022-11-07T15:46:25.087Z,97092.19
2022-11-07T15:48:52.562Z,97094.91
2022-11-07T15:51:19.199Z,97095.19
2022-11-07T15:53:45.993Z,97100.50
2022-11-07T15:56:15.733Z,97098.44
2022-11-07T15:58:42.895Z,97106.91
2022-11-07T16:01:09.960Z,97098.59
2022-11-07T16:03:36.895Z,97094.78
2022-11-07T16:06:13.914Z,97087.41
2022-11-07T16:08:40.701Z,97092.59
2022-11-07T16:11:11.610Z,97092.03
2022-11-07T16:13:39.075Z,97085.59
2022-11-07T16:16:06.889Z,97093.03
2022-11-07T16:18:41.738Z,97097.47
2022-11-07T16:21:08.542Z,97094.13
2022-11-07T16:23:35.654Z,97087.22
2022-11-07T16:26:02.607Z,97090.13
2022-11-07T16:28:31.763Z,97086.53
2022-11-07T16:30:58.691Z,97080.88
2022-11-07T16:33:26.607Z,97082.22
2022-11-07T16:35:55.162Z,97077.53
2022-11-07T16:38:23.509Z,97083.88
2022-11-07T16:40:50.365Z,97088.75
2022-11-07T16:43:17.314Z,97085.16
2022-11-07T16:45:49.383Z,97084.84
2022-11-07T16:48:23.248Z,97088.56
2022-11-07T16:50:50.287Z,97082.47
2022-11-07T16:53:17.164Z,97072.78
2022-11-07T16:55:50.778Z,97077.44
2022-11-07T16:58:30.359Z,97078.75
2022-11-07T17:00:59.807Z,97075.72
2022-11-07T17:03:27.070Z,97070.56
2022-11-07T17:05:54.938Z,97070.31
2022-11-07T17:08:23.786Z,97074.72
2022-11-07T17:10:51.064Z,97073.63
2022-11-07T17:13:18.126Z,97073.88
2022-11-07T17:15:44.892Z,97084.50
2022-11-07T17:18:18.480Z,97088.06
2022-11-07T17:20:52.802Z,97085.53
2022-11-07T17:23:25.232Z,97094.59
2022-11-07T17:25:55.685Z,97096.88
2022-11-07T17:28:23.972Z,97094.81
2022-11-07T17:30:50.743Z,97102.47
2022-11-07T17:33:17.506Z,97100.56
2022-11-07T17:35:44.773Z,97110.94
2022-11-07T17:38:19.360Z,97104.03
2022-11-07T17:40:46.848Z,97104.84
2022-11-07T17:43:13.651Z,97104.25
2022-11-07T17:45:40.562Z,97107.72
2022-11-07T17:48:07.368Z,97099.47
2022-11-07T17:50:34.230Z,97107.00
2022-11-07T17:53:00.913Z,97109.84
2022-11-07T17:55:28.060Z,97102.22
2022-11-07T17:57:54.891Z,97106.28
2022-11-07T18:00:24.220Z,97104.25
2022-11-07T18:02:52.623Z,97104.84
2022-11-07T18:05:21.230Z,97094.56
2022-11-07T18:07:47.950Z,97104.13
2022-11-07T18:10:16.008Z,97100.66
2022-11-07T18:12:43.381Z,97108.91
2022-11-07T18:15:12.808Z,97104.03
2022-11-07T18:17:40.916Z,97106.78
2022-11-07T18:20:10.067Z,97110.84
2022-11-07T18:22:37.632Z,97099.84
2022-11-07T18:25:08.246Z,97108.72
2022-11-07T18:27:34.888Z,97099.47
2022-11-07T18:30:03.017Z,97100.56
2022-11-07T18:32:35.687Z,97102.47
2022-11-07T18:35:04.680Z,97102.38
2022-11-07T18:37:31.703Z,97101.66
2022-11-07T18:39:58.540Z,97103.69
2022-11-07T18:42:25.195Z,97099.50
2022-11-07T18:44:52.174Z,97094.00
2022-11-07T18:47:18.883Z,97090.56
2022-11-07T18:49:45.655Z,97097.47
2022-11-07T18:52:12.707Z,97092.56
2022-11-07T18:54:39.477Z,97096.06
2022-11-07T18:57:06.165Z,97086.47
2022-11-07T18:59:32.999Z,97095.31
2022-11-07T19:01:59.721Z,97094.59
2022-11-07T19:04:26.603Z,97092.56
2022-11-07T19:06:57.251Z,97091.84
2022-11-07T19:09:29.923Z,97087.66
2022-11-07T19:11:58.106Z,97093.16
2022-11-07T19:14:25.439Z,97086.97
2022-11-07T19:16:53.065Z,97090.41
2022-11-07T19:19:19.990Z,97087.66
2022-11-07T19:21:46.775Z,97081.47
2022-11-07T19:24:21.490Z,97082.06
2022-11-07T19:26:49.196Z,97080.03
2022-11-07T19:29:16.725Z,97086.84
2022-11-07T19:31:43.734Z,97083.41
2022-11-07T19:34:10.646Z,97085.44
2022-11-07T19:36:37.334Z,97086.72
2022-11-07T19:39:05.756Z,97090.81
2022-11-07T19:41:32.458Z,97086.00
2022-11-07T19:44:01.839Z,97077.66
2022-11-07T19:46:28.584Z,97090.69
2022-11-07T19:48:56.211Z,97085.19
2022-11-07T19:51:23.363Z,97088.53
2022-11-07T19:53:55.646Z,97089.16
2022-11-07T19:56:23.930Z,97085.69
2022-11-07T19:58:50.698Z,97094.66
2022-11-07T20:01:22.850Z,97083.41
2022-11-07T20:03:51.143Z,97086.16
2022-11-07T20:06:21.576Z,97088.81
2022-11-07T20:08:48.418Z,97088.81
2022-11-07T20:11:16.984Z,97088.72
2022-11-07T20:13:43.816Z,97085.81
2022-11-07T20:16:10.885Z,97086.44
2022-11-07T20:18:38.201Z,97078.81
2022-11-07T20:21:12.921Z,97080.09
2022-11-07T20:23:40.850Z,97078.66
2022-11-07T20:26:10.030Z,97077.25
2022-11-07T20:28:37.239Z,97077.13
2022-11-07T20:31:11.557Z,97074.97
2022-11-07T20:33:38.302Z,97078.34
2022-11-07T20:36:08.022Z,97069.97
2022-11-07T20:38:35.607Z,97069.97
2022-11-07T20:41:03.770Z,97063.66
2022-11-07T20:43:31.442Z,97060.19
2022-11-07T20:46:13.122Z,97059.94
2022-11-07T20:48:39.915Z,97063.31
2022-11-07T20:51:18.415Z,97063.19
2022-11-07T20:53:49.844Z,97060.31
2022-11-07T20:56:17.976Z,97070.50
2022-11-07T20:58:45.185Z,97069.06
2022-11-07T21:01:14.682Z,97074.44
2022-11-07T21:03:41.926Z,97072.91
2022-11-07T21:06:11.511Z,97069.31
2022-11-07T21:08:43.302Z,97064.41
2022-11-07T21:11:11.294Z,97053.31
2022-11-07T21:13:38.093Z,97057.25
2022-11-07T21:16:05.575Z,97053.69
2022-11-07T21:18:32.605Z,97046.03
2022-11-07T21:21:10.307Z,97053.47
2022-11-07T21:23:37.684Z,97040.31
2022-11-07T21:26:14.378Z,97051.78
2022-11-07T21:28:41.193Z,97040.66
2022-11-07T21:31:11.350Z,97035.06
2022-11-07T21:33:38.936Z,97030.19
2022-11-07T21:36:10.671Z,97033.38
2022-11-07T21:38:37.803Z,97026.47
2022-11-07T21:41:14.230Z,97023.47
2022-11-07T21:43:41.183Z,97021.34
2022-11-07T21:46:23.195Z,97023.22
2022-11-07T21:48:50.721Z,97019.06
2022-11-07T21:51:19.600Z,97025.06
2022-11-07T21:53:47.157Z,97008.44
2022-11-07T21:56:27.197Z,97007.63
2022-11-07T21:58:56.780Z,97009.53
2022-11-07T22:01:24.077Z,97008.09
2022-11-07T22:04:06.871Z,97002.34
2022-11-07T22:06:37.117Z,96997.47
2022-11-07T22:09:04.544Z,97000.13
2022-11-07T22:11:31.365Z,96995.81
2022-11-07T22:13:58.462Z,96990.22
2022-11-07T22:16:25.332Z,96990.06
2022-11-07T22:18:52.186Z,96990.69
2022-11-07T22:21:21.457Z,96986.38
2022-11-07T22:23:48.787Z,96984.25
2022-11-07T22:26:21.399Z,96975.75
2022-11-07T22:28:49.213Z,96981.84
2022-11-07T22:31:22.430Z,96973.38
2022-11-07T22:33:50.060Z,96978.75
2022-11-07T22:36:17.519Z,96970.38
2022-11-07T22:38:44.389Z,96973.03
2022-11-07T22:41:14.458Z,96970.75
2022-11-07T22:43:41.609Z,96963.13
2022-11-07T22:46:11.880Z,96958.09
2022-11-07T22:48:38.623Z,96955.97
2022-11-07T22:51:16.474Z,96960.63
2022-11-07T22:53:43.295Z,96955.72
2022-11-07T22:56:11.276Z,96957.63
2022-11-07T22:58:38.427Z,96945.81
2022-11-07T23:01:06.604Z,96953.94
2022-11-07T23:03:33.498Z,96950.38
2022-11-07T23:06:04.664Z,96946.06
2022-11-07T23:08:35.250Z,96945.94
2022-11-07T23:13:53.489Z,96934.13
2022-11-07T23:16:27.434Z,96930.56
2022-11-07T23:18:58.270Z,96925.66
2022-11-07T23:21:26.551Z,96928.28
2022-11-07T23:23:54.733Z,96918.63
2022-11-07T23:26:21.575Z,96924.72
2022-11-07T23:28:49.799Z,96919.09
2022-11-07T23:31:17.826Z,96908.03
2022-11-07T23:33:44.786Z,96916.25
2022-11-07T23:36:14.218Z,96916.09
2022-11-07T23:38:41.897Z,96910.63
2022-11-07T23:41:10.078Z,96910.50
2022-11-07T23:43:36.759Z,96904.31
2022-11-07T23:46:21.999Z,96906.22
2022-11-07T23:49:11.908Z,96904.78
2022-11-07T23:51:41.094Z,96896.44
2022-11-07T23:54:26.285Z,96903.81
2022-11-07T23:56:53.063Z,96893.34
2022-11-07T23:59:38.272Z,96896.66
